RYR7GJ EIDW-LPPT
Flight info
| Callsign | RYR7GJ |
|---|---|
| Flight time | N/A |
| Altitude | 37000 |
| Route | BEPAN2J BEPAN DCT BANBA DCT PAVLO DCT TALIG DCT XIDAN DCT KORUL DCT ASPOR DCT XAMAX |
| Aircraft | B38M/M-SADE3FGILRWY/SB1 |
Departure
| Time | N/A |
|---|---|
| Airport | Dublin Airport (EIDW) |
Arrival
| Time | 2026-05-03 21:45 |
|---|---|
| Airport | Lisbon Humberto Delgado Airport (LPPT) |
| Time | Latitude | Longitude | Altitude | Speed | Heading |
|---|---|---|---|---|---|
| 2026-05-03 20:15 | 47.23014 | -6.18850 | 36960 ft | 438 kts | 187° |
| 2026-05-03 20:15 | 47.16961 | -6.19830 | 36962 ft | 438 kts | 187° |
| 2026-05-03 20:16 | 47.10890 | -6.20810 | 36960 ft | 439 kts | 187° |
| 2026-05-03 20:16 | 47.04817 | -6.21821 | 36960 ft | 438 kts | 191° |
| 2026-05-03 20:17 | 46.98863 | -6.23716 | 36957 ft | 438 kts | 193° |
| 2026-05-03 20:17 | 46.92921 | -6.25664 | 36960 ft | 438 kts | 194° |
| 2026-05-03 20:18 | 46.86985 | -6.27615 | 36960 ft | 438 kts | 194° |
| 2026-05-03 20:18 | 46.81039 | -6.29566 | 36964 ft | 438 kts | 194° |
| 2026-05-03 20:19 | 46.75107 | -6.31508 | 36963 ft | 436 kts | 194° |
| 2026-05-03 20:19 | 46.69180 | -6.33443 | 36967 ft | 436 kts | 194° |
| 2026-05-03 20:20 | 46.63262 | -6.35372 | 36967 ft | 436 kts | 194° |
| 2026-05-03 20:20 | 46.57336 | -6.37299 | 36965 ft | 436 kts | 194° |
| 2026-05-03 20:21 | 46.51419 | -6.39219 | 36971 ft | 436 kts | 194° |
| 2026-05-03 20:21 | 46.45497 | -6.41136 | 36972 ft | 436 kts | 194° |
| 2026-05-03 20:22 | 46.39574 | -6.43049 | 36973 ft | 436 kts | 194° |
| 2026-05-03 20:22 | 46.33637 | -6.44962 | 36973 ft | 438 kts | 194° |
| 2026-05-03 20:23 | 46.27691 | -6.46874 | 36973 ft | 438 kts | 194° |
| 2026-05-03 20:23 | 46.21788 | -6.48768 | 36978 ft | 438 kts | 194° |
| 2026-05-03 20:24 | 46.15845 | -6.50671 | 36971 ft | 437 kts | 194° |
| 2026-05-03 20:24 | 46.09912 | -6.52565 | 36982 ft | 436 kts | 194° |
| 2026-05-03 20:25 | 46.03981 | -6.54456 | 36980 ft | 436 kts | 194° |
| 2026-05-03 20:25 | 45.98054 | -6.56341 | 36969 ft | 436 kts | 194° |
| 2026-05-03 20:26 | 45.92125 | -6.58222 | 36982 ft | 436 kts | 194° |
| 2026-05-03 20:26 | 45.86197 | -6.60099 | 36985 ft | 436 kts | 194° |
| 2026-05-03 20:27 | 45.80272 | -6.61971 | 36981 ft | 436 kts | 194° |
| 2026-05-03 20:27 | 45.74348 | -6.63839 | 36980 ft | 435 kts | 194° |
| 2026-05-03 20:28 | 45.68441 | -6.65697 | 36983 ft | 435 kts | 194° |
| 2026-05-03 20:28 | 45.62516 | -6.67557 | 37014 ft | 436 kts | 194° |
| 2026-05-03 20:29 | 45.56571 | -6.69419 | 36972 ft | 438 kts | 194° |
| 2026-05-03 20:29 | 45.50644 | -6.71271 | 36986 ft | 436 kts | 194° |
| 2026-05-03 20:30 | 45.44717 | -6.73119 | 36990 ft | 436 kts | 194° |
| 2026-05-03 20:30 | 45.38791 | -6.74963 | 37000 ft | 436 kts | 194° |
| 2026-05-03 20:31 | 45.32866 | -6.76803 | 37031 ft | 436 kts | 194° |
| 2026-05-03 20:31 | 45.26953 | -6.78635 | 36998 ft | 434 kts | 194° |
| 2026-05-03 20:32 | 45.21079 | -6.80452 | 36989 ft | 435 kts | 194° |
| 2026-05-03 20:32 | 45.15166 | -6.82276 | 36993 ft | 434 kts | 194° |
| 2026-05-03 20:33 | 45.09272 | -6.84091 | 37001 ft | 434 kts | 194° |
| 2026-05-03 20:33 | 45.03377 | -6.85902 | 37002 ft | 434 kts | 194° |
| 2026-05-03 20:34 | 44.97476 | -6.87712 | 36994 ft | 433 kts | 194° |
| 2026-05-03 20:34 | 44.91580 | -6.89517 | 36998 ft | 434 kts | 194° |
| 2026-05-03 20:35 | 44.85673 | -6.91321 | 36992 ft | 435 kts | 194° |
| 2026-05-03 20:35 | 44.79858 | -6.93579 | 37017 ft | 434 kts | 198° |
| 2026-05-03 20:36 | 44.74071 | -6.95947 | 37004 ft | 432 kts | 198° |
| 2026-05-03 20:36 | 44.68294 | -6.98277 | 37005 ft | 432 kts | 198° |
| 2026-05-03 20:37 | 44.62508 | -7.00603 | 37011 ft | 432 kts | 198° |
| 2026-05-03 20:37 | 44.56735 | -7.02919 | 37010 ft | 432 kts | 198° |
| 2026-05-03 20:38 | 44.50945 | -7.05236 | 37008 ft | 432 kts | 198° |
| 2026-05-03 20:38 | 44.45161 | -7.07548 | 37012 ft | 432 kts | 198° |
| 2026-05-03 20:39 | 44.39379 | -7.09852 | 37001 ft | 432 kts | 198° |
| 2026-05-03 20:39 | 44.33605 | -7.12150 | 37010 ft | 431 kts | 198° |
| 2026-05-03 20:40 | 44.27838 | -7.14440 | 37017 ft | 431 kts | 198° |
| 2026-05-03 20:40 | 44.22071 | -7.16725 | 37016 ft | 431 kts | 198° |
| 2026-05-03 20:41 | 44.16300 | -7.19007 | 37010 ft | 431 kts | 198° |
| 2026-05-03 20:41 | 44.10574 | -7.21266 | 37022 ft | 431 kts | 198° |
| 2026-05-03 20:42 | 44.04798 | -7.23541 | 37021 ft | 432 kts | 198° |
| 2026-05-03 20:42 | 43.99010 | -7.25816 | 37003 ft | 432 kts | 198° |
| 2026-05-03 20:43 | 43.93230 | -7.28083 | 37014 ft | 431 kts | 198° |
| 2026-05-03 20:43 | 43.87462 | -7.30341 | 37024 ft | 431 kts | 198° |
| 2026-05-03 20:44 | 43.81693 | -7.32595 | 37021 ft | 431 kts | 198° |
| 2026-05-03 20:44 | 43.75930 | -7.34842 | 37020 ft | 430 kts | 198° |
| 2026-05-03 20:45 | 43.70166 | -7.37084 | 37023 ft | 430 kts | 198° |
| 2026-05-03 20:45 | 43.64406 | -7.39321 | 37031 ft | 430 kts | 198° |
| 2026-05-03 20:46 | 43.58645 | -7.41553 | 37004 ft | 430 kts | 198° |
| 2026-05-03 20:46 | 43.52896 | -7.43777 | 37025 ft | 429 kts | 198° |
| 2026-05-03 20:47 | 43.47158 | -7.45992 | 37034 ft | 429 kts | 198° |
| 2026-05-03 20:47 | 43.41418 | -7.48204 | 37033 ft | 428 kts | 198° |
| 2026-05-03 20:48 | 43.36647 | -7.50039 | 37025 ft | 428 kts | 198° |
| 2026-05-03 20:48 | 43.30912 | -7.52240 | 37036 ft | 428 kts | 198° |
| 2026-05-03 20:49 | 43.25181 | -7.54435 | 37035 ft | 428 kts | 198° |
| 2026-05-03 20:49 | 43.19447 | -7.56628 | 37034 ft | 428 kts | 198° |
| 2026-05-03 20:50 | 43.13725 | -7.58811 | 37029 ft | 426 kts | 199° |
| 2026-05-03 20:50 | 43.08005 | -7.60990 | 37031 ft | 428 kts | 198° |
| 2026-05-03 20:51 | 43.02250 | -7.63178 | 37036 ft | 430 kts | 198° |
| 2026-05-03 20:51 | 42.96495 | -7.65361 | 37024 ft | 429 kts | 199° |
| 2026-05-03 20:52 | 42.90749 | -7.67537 | 37034 ft | 429 kts | 198° |
| 2026-05-03 20:52 | 42.84999 | -7.69710 | 37036 ft | 429 kts | 198° |
| 2026-05-03 20:53 | 42.79255 | -7.71877 | 37038 ft | 429 kts | 198° |
| 2026-05-03 20:53 | 42.73503 | -7.74043 | 37024 ft | 428 kts | 199° |
| 2026-05-03 20:54 | 42.67806 | -7.76183 | 37029 ft | 428 kts | 199° |
| 2026-05-03 20:54 | 42.59207 | -7.79406 | 37032 ft | 428 kts | 199° |
| 2026-05-03 20:55 | 42.53472 | -7.81551 | 37032 ft | 428 kts | 199° |
| 2026-05-03 20:55 | 42.47734 | -7.83692 | 37032 ft | 428 kts | 199° |
| 2026-05-03 20:56 | 42.41995 | -7.85830 | 37029 ft | 427 kts | 199° |
| 2026-05-03 20:56 | 42.36258 | -7.87964 | 37032 ft | 428 kts | 199° |
| 2026-05-03 20:57 | 42.30531 | -7.90090 | 37030 ft | 427 kts | 199° |
| 2026-05-03 20:57 | 42.24800 | -7.92212 | 37029 ft | 427 kts | 199° |
| 2026-05-03 20:58 | 42.19076 | -7.94328 | 37031 ft | 427 kts | 199° |
| 2026-05-03 20:58 | 42.13351 | -7.96441 | 37035 ft | 426 kts | 199° |
| 2026-05-03 20:59 | 42.07637 | -7.98547 | 37029 ft | 425 kts | 199° |
| 2026-05-03 20:59 | 42.01928 | -8.00646 | 37030 ft | 425 kts | 199° |
| 2026-05-03 21:00 | 41.97182 | -8.02390 | 37030 ft | 425 kts | 199° |
| 2026-05-03 21:00 | 41.90511 | -8.04834 | 37031 ft | 425 kts | 199° |
| 2026-05-03 21:01 | 41.84808 | -8.06920 | 37031 ft | 425 kts | 199° |
| 2026-05-03 21:01 | 41.79072 | -8.08666 | 37071 ft | 426 kts | 194° |
| 2026-05-03 21:02 | 41.73227 | -8.10148 | 37028 ft | 427 kts | 195° |
| 2026-05-03 21:02 | 41.67396 | -8.11671 | 37033 ft | 426 kts | 195° |
| 2026-05-03 21:03 | 41.61560 | -8.13197 | 37037 ft | 425 kts | 195° |
| 2026-05-03 21:03 | 41.55793 | -8.14703 | 37037 ft | 425 kts | 195° |
| 2026-05-03 21:04 | 41.49959 | -8.16225 | 37040 ft | 425 kts | 195° |
| 2026-05-03 21:04 | 41.44203 | -8.17723 | 37042 ft | 422 kts | 195° |
| 2026-05-03 21:05 | 41.38438 | -8.19220 | 37046 ft | 422 kts | 195° |
| 2026-05-03 21:05 | 41.32680 | -8.20713 | 37046 ft | 422 kts | 195° |
| 2026-05-03 21:06 | 41.26908 | -8.22208 | 37044 ft | 422 kts | 195° |
| 2026-05-03 21:06 | 41.21144 | -8.23697 | 37047 ft | 421 kts | 195° |
| 2026-05-03 21:07 | 41.15402 | -8.25177 | 37043 ft | 421 kts | 195° |
| 2026-05-03 21:07 | 41.09644 | -8.26660 | 37055 ft | 421 kts | 195° |
| 2026-05-03 21:08 | 41.03890 | -8.28139 | 37036 ft | 421 kts | 196° |
| 2026-05-03 21:08 | 40.98150 | -8.29612 | 37058 ft | 420 kts | 196° |
| 2026-05-03 21:09 | 40.92410 | -8.31082 | 37054 ft | 420 kts | 196° |
| 2026-05-03 21:09 | 40.86674 | -8.32548 | 37062 ft | 420 kts | 196° |
| 2026-05-03 21:10 | 40.80935 | -8.34013 | 37038 ft | 419 kts | 196° |
| 2026-05-03 21:10 | 40.75209 | -8.35471 | 37063 ft | 420 kts | 196° |
| 2026-05-03 21:11 | 40.69499 | -8.36923 | 37069 ft | 421 kts | 196° |
| 2026-05-03 21:11 | 40.63748 | -8.38383 | 37066 ft | 421 kts | 196° |
| 2026-05-03 21:12 | 40.58001 | -8.39840 | 37045 ft | 420 kts | 196° |
| 2026-05-03 21:12 | 40.52278 | -8.41287 | 37057 ft | 419 kts | 196° |
| 2026-05-03 21:13 | 40.46554 | -8.42733 | 37057 ft | 419 kts | 196° |
| 2026-05-03 21:13 | 40.40832 | -8.44175 | 37063 ft | 419 kts | 196° |
| 2026-05-03 21:14 | 40.35101 | -8.45617 | 37062 ft | 419 kts | 196° |
| 2026-05-03 21:14 | 40.32257 | -8.46332 | 36375 ft | 419 kts | 196° |
| 2026-05-03 21:14 | 40.29376 | -8.47056 | 35560 ft | 423 kts | 196° |
| 2026-05-03 21:15 | 40.26484 | -8.47781 | 34919 ft | 422 kts | 196° |
| 2026-05-03 21:15 | 40.23606 | -8.48503 | 34290 ft | 420 kts | 197° |
| 2026-05-03 21:15 | 40.20734 | -8.49222 | 33505 ft | 421 kts | 196° |
| 2026-05-03 21:15 | 40.17853 | -8.49943 | 32647 ft | 422 kts | 196° |
| 2026-05-03 21:16 | 40.14969 | -8.50665 | 31853 ft | 421 kts | 197° |
| 2026-05-03 21:16 | 40.12098 | -8.51381 | 31155 ft | 420 kts | 196° |
| 2026-05-03 21:16 | 40.09255 | -8.52191 | 30524 ft | 412 kts | 203° |
| 2026-05-03 21:16 | 40.06712 | -8.53685 | 30299 ft | 392 kts | 215° |
| 2026-05-03 21:17 | 40.04389 | -8.55440 | 30132 ft | 380 kts | 213° |
| 2026-05-03 21:17 | 40.02873 | -8.56527 | 30021 ft | 372 kts | 213° |
| 2026-05-03 21:17 | 39.99895 | -8.58644 | 29770 ft | 357 kts | 213° |
| 2026-05-03 21:17 | 39.97760 | -8.60154 | 29589 ft | 341 kts | 213° |
| 2026-05-03 21:18 | 39.95704 | -8.61605 | 29433 ft | 330 kts | 213° |
| 2026-05-03 21:18 | 39.93713 | -8.63007 | 29263 ft | 321 kts | 213° |
| 2026-05-03 21:18 | 39.91779 | -8.64369 | 29077 ft | 311 kts | 213° |
| 2026-05-03 21:18 | 39.89879 | -8.65704 | 28630 ft | 311 kts | 213° |
| 2026-05-03 21:19 | 39.87963 | -8.67049 | 28353 ft | 316 kts | 213° |
| 2026-05-03 21:19 | 39.86014 | -8.68415 | 28033 ft | 319 kts | 213° |
| 2026-05-03 21:19 | 39.84059 | -8.69786 | 27731 ft | 319 kts | 213° |
| 2026-05-03 21:19 | 39.82105 | -8.71155 | 27405 ft | 318 kts | 213° |
| 2026-05-03 21:20 | 39.80186 | -8.72499 | 27083 ft | 317 kts | 213° |
| 2026-05-03 21:20 | 39.78222 | -8.73873 | 26716 ft | 316 kts | 213° |
| 2026-05-03 21:20 | 39.76292 | -8.75222 | 26397 ft | 315 kts | 213° |
| 2026-05-03 21:20 | 39.74392 | -8.76550 | 26067 ft | 313 kts | 213° |
| 2026-05-03 21:21 | 39.72453 | -8.77904 | 25739 ft | 312 kts | 213° |
| 2026-05-03 21:21 | 39.70545 | -8.79236 | 25408 ft | 311 kts | 213° |
| 2026-05-03 21:21 | 39.68670 | -8.80545 | 25067 ft | 309 kts | 213° |
| 2026-05-03 21:21 | 39.66780 | -8.81861 | 24746 ft | 308 kts | 213° |
| 2026-05-03 21:22 | 39.64896 | -8.83174 | 24423 ft | 307 kts | 213° |
| 2026-05-03 21:22 | 39.63018 | -8.84482 | 24110 ft | 306 kts | 213° |
| 2026-05-03 21:22 | 39.61142 | -8.85787 | 23800 ft | 305 kts | 213° |
| 2026-05-03 21:22 | 39.59275 | -8.87085 | 23466 ft | 304 kts | 213° |
| 2026-05-03 21:23 | 39.57416 | -8.88377 | 23103 ft | 303 kts | 213° |
| 2026-05-03 21:23 | 39.55564 | -8.89663 | 22742 ft | 301 kts | 213° |
| 2026-05-03 21:23 | 39.53721 | -8.90942 | 22377 ft | 300 kts | 213° |
| 2026-05-03 21:23 | 39.51888 | -8.92214 | 22024 ft | 298 kts | 213° |
| 2026-05-03 21:24 | 39.50068 | -8.93475 | 21659 ft | 297 kts | 213° |
| 2026-05-03 21:24 | 39.48249 | -8.94735 | 21335 ft | 295 kts | 212° |
| 2026-05-03 21:24 | 39.46442 | -8.95987 | 20983 ft | 294 kts | 212° |
| 2026-05-03 21:24 | 39.44639 | -8.97235 | 20625 ft | 293 kts | 213° |
| 2026-05-03 21:25 | 39.42846 | -8.98474 | 20288 ft | 292 kts | 212° |
| 2026-05-03 21:25 | 39.41063 | -8.99707 | 19953 ft | 291 kts | 212° |
| 2026-05-03 21:25 | 39.39284 | -9.00936 | 19622 ft | 290 kts | 212° |
| 2026-05-03 21:25 | 39.37505 | -9.02164 | 19296 ft | 289 kts | 212° |
| 2026-05-03 21:26 | 39.35734 | -9.03386 | 18975 ft | 288 kts | 212° |
| 2026-05-03 21:26 | 39.33966 | -9.04605 | 18655 ft | 288 kts | 212° |
| 2026-05-03 21:26 | 39.32201 | -9.05821 | 18325 ft | 287 kts | 212° |
| 2026-05-03 21:26 | 39.30440 | -9.07034 | 17973 ft | 286 kts | 212° |
| 2026-05-03 21:27 | 39.28691 | -9.08239 | 17602 ft | 285 kts | 212° |
| 2026-05-03 21:27 | 39.26945 | -9.09440 | 17241 ft | 284 kts | 212° |
| 2026-05-03 21:27 | 39.25203 | -9.10638 | 16875 ft | 283 kts | 212° |
| 2026-05-03 21:27 | 39.23480 | -9.11822 | 16514 ft | 279 kts | 212° |
| 2026-05-03 21:28 | 39.21800 | -9.12976 | 16145 ft | 276 kts | 212° |
| 2026-05-03 21:28 | 39.20113 | -9.14135 | 15796 ft | 274 kts | 212° |
| 2026-05-03 21:28 | 39.18439 | -9.15283 | 15449 ft | 272 kts | 212° |
| 2026-05-03 21:28 | 39.16747 | -9.16443 | 15101 ft | 271 kts | 212° |
| 2026-05-03 21:29 | 39.15111 | -9.17564 | 14771 ft | 270 kts | 212° |
| 2026-05-03 21:29 | 39.13435 | -9.18712 | 14420 ft | 269 kts | 212° |
| 2026-05-03 21:29 | 39.11809 | -9.19825 | 14091 ft | 268 kts | 211° |
| 2026-05-03 21:29 | 39.10164 | -9.20951 | 13754 ft | 268 kts | 211° |
| 2026-05-03 21:30 | 39.08497 | -9.22091 | 13370 ft | 268 kts | 211° |
| 2026-05-03 21:30 | 39.06875 | -9.23199 | 12999 ft | 267 kts | 211° |
| 2026-05-03 21:30 | 39.05238 | -9.24318 | 12642 ft | 266 kts | 211° |
| 2026-05-03 21:30 | 39.03606 | -9.25432 | 12273 ft | 265 kts | 211° |
| 2026-05-03 21:31 | 39.01979 | -9.26542 | 11913 ft | 264 kts | 211° |
| 2026-05-03 21:31 | 39.00358 | -9.27648 | 11556 ft | 263 kts | 211° |
| 2026-05-03 21:31 | 38.98749 | -9.28744 | 11260 ft | 260 kts | 211° |
| 2026-05-03 21:31 | 38.97181 | -9.29813 | 11056 ft | 250 kts | 211° |
| 2026-05-03 21:32 | 38.95667 | -9.30843 | 10791 ft | 242 kts | 211° |
| 2026-05-03 21:32 | 38.94172 | -9.31861 | 10277 ft | 244 kts | 211° |
| 2026-05-03 21:32 | 38.92674 | -9.32881 | 9813 ft | 243 kts | 211° |
| 2026-05-03 21:32 | 38.91184 | -9.33894 | 9337 ft | 242 kts | 211° |
| 2026-05-03 21:33 | 38.89702 | -9.34901 | 8885 ft | 240 kts | 211° |
| 2026-05-03 21:33 | 38.88231 | -9.35900 | 8419 ft | 238 kts | 211° |
| 2026-05-03 21:33 | 38.86780 | -9.36886 | 8152 ft | 236 kts | 211° |
| 2026-05-03 21:33 | 38.85325 | -9.37874 | 8084 ft | 238 kts | 211° |
| 2026-05-03 21:34 | 38.83860 | -9.38867 | 8079 ft | 238 kts | 211° |
| 2026-05-03 21:34 | 38.82392 | -9.39863 | 8093 ft | 239 kts | 211° |
| 2026-05-03 21:34 | 38.80924 | -9.40858 | 8084 ft | 239 kts | 211° |
| 2026-05-03 21:34 | 38.79455 | -9.41853 | 8088 ft | 238 kts | 211° |
| 2026-05-03 21:35 | 38.78010 | -9.42831 | 7707 ft | 235 kts | 211° |
| 2026-05-03 21:35 | 38.76560 | -9.43813 | 7278 ft | 234 kts | 211° |
| 2026-05-03 21:35 | 38.75027 | -9.44520 | 6824 ft | 239 kts | 188° |
| 2026-05-03 21:35 | 38.73403 | -9.44267 | 6599 ft | 234 kts | 165° |
| 2026-05-03 21:36 | 38.71994 | -9.43323 | 6413 ft | 223 kts | 150° |
| 2026-05-03 21:36 | 38.70724 | -9.42281 | 6131 ft | 211 kts | 151° |
| 2026-05-03 21:36 | 38.69913 | -9.41625 | 5952 ft | 205 kts | 151° |
| 2026-05-03 21:36 | 38.68718 | -9.40669 | 5556 ft | 202 kts | 151° |
| 2026-05-03 21:37 | 38.67518 | -9.39719 | 5122 ft | 203 kts | 150° |
| 2026-05-03 21:37 | 38.66317 | -9.38774 | 4686 ft | 203 kts | 150° |
| 2026-05-03 21:37 | 38.65109 | -9.37830 | 4270 ft | 203 kts | 150° |
| 2026-05-03 21:37 | 38.63913 | -9.36898 | 4028 ft | 201 kts | 150° |
| 2026-05-03 21:38 | 38.62317 | -9.35658 | 3988 ft | 203 kts | 149° |
| 2026-05-03 21:38 | 38.61502 | -9.35026 | 3996 ft | 203 kts | 150° |
| 2026-05-03 21:38 | 38.60298 | -9.34093 | 3994 ft | 202 kts | 150° |
| 2026-05-03 21:38 | 38.59093 | -9.33159 | 4002 ft | 202 kts | 150° |
| 2026-05-03 21:39 | 38.57990 | -9.32055 | 3966 ft | 203 kts | 125° |
| 2026-05-03 21:39 | 38.57531 | -9.30395 | 3974 ft | 200 kts | 89° |
| 2026-05-03 21:39 | 38.57779 | -9.28680 | 4017 ft | 196 kts | 67° |
| 2026-05-03 21:39 | 38.58251 | -9.27041 | 4029 ft | 197 kts | 65° |
| 2026-05-03 21:40 | 38.58737 | -9.25427 | 4022 ft | 197 kts | 65° |
| 2026-05-03 21:40 | 38.59439 | -9.23976 | 3958 ft | 184 kts | 40° |
| 2026-05-03 21:40 | 38.60404 | -9.23080 | 3769 ft | 161 kts | 23° |
| 2026-05-03 21:40 | 38.61396 | -9.22510 | 3565 ft | 151 kts | 18° |
| 2026-05-03 21:41 | 38.62361 | -9.22004 | 3378 ft | 149 kts | 17° |
| 2026-05-03 21:41 | 38.63305 | -9.21504 | 3191 ft | 148 kts | 18° |
| 2026-05-03 21:41 | 38.64263 | -9.20995 | 2978 ft | 146 kts | 18° |
| 2026-05-03 21:41 | 38.65201 | -9.20494 | 2809 ft | 146 kts | 17° |
| 2026-05-03 21:42 | 38.66138 | -9.19996 | 2607 ft | 145 kts | 18° |
| 2026-05-03 21:42 | 38.67068 | -9.19499 | 2415 ft | 145 kts | 18° |
| 2026-05-03 21:42 | 38.68000 | -9.19003 | 2228 ft | 145 kts | 18° |
| 2026-05-03 21:42 | 38.68912 | -9.18518 | 2016 ft | 143 kts | 18° |
| 2026-05-03 21:43 | 38.69833 | -9.18025 | 1822 ft | 144 kts | 18° |
| 2026-05-03 21:43 | 38.70757 | -9.17534 | 1637 ft | 145 kts | 18° |
| 2026-05-03 21:43 | 38.71683 | -9.17040 | 1441 ft | 144 kts | 19° |
| 2026-05-03 21:43 | 38.72593 | -9.16551 | 1281 ft | 140 kts | 18° |
| 2026-05-03 21:44 | 38.73495 | -9.16071 | 1061 ft | 141 kts | 19° |
| 2026-05-03 21:44 | 38.74410 | -9.15584 | 817 ft | 142 kts | 18° |
| 2026-05-03 21:44 | 38.75330 | -9.15110 | 639 ft | 143 kts | 21° |
| 2026-05-03 21:44 | 38.76254 | -9.14605 | 473 ft | 145 kts | 22° |
| 2026-05-03 21:45 | 38.77179 | -9.14107 | 367 ft | 138 kts | 22° |
| 2026-05-03 21:45 | 38.77948 | -9.13692 | 368 ft | 92 kts | 23° |
| 2026-05-03 21:45 | 38.78369 | -9.13468 | 370 ft | 52 kts | 22° |
| 2026-05-03 21:45 | 38.78526 | -9.13365 | 363 ft | 11 kts | 50° |
| 2026-05-03 21:46 | 38.78533 | -9.13277 | 363 ft | 6 kts | 114° |
| 2026-05-03 21:46 | 38.78521 | -9.13254 | 365 ft | 4 kts | 131° |
| 2026-05-03 21:46 | 38.78492 | -9.13233 | 363 ft | 6 kts | 161° |
| 2026-05-03 21:46 | 38.78440 | -9.13219 | 363 ft | 10 kts | 171° |
| 2026-05-03 21:47 | 38.78373 | -9.13229 | 367 ft | 5 kts | 205° |
| 2026-05-03 21:47 | 38.78338 | -9.13250 | 364 ft | 7 kts | 205° |
| 2026-05-03 21:47 | 38.78288 | -9.13280 | 361 ft | 9 kts | 205° |
| 2026-05-03 21:47 | 38.78221 | -9.13317 | 361 ft | 1 kts | 201° |
| 2026-05-03 21:48 | 38.78213 | -9.13321 | 365 ft | 2 kts | 201° |
| 2026-05-03 21:48 | 38.78186 | -9.13335 | 365 ft | 6 kts | 201° |
| 2026-05-03 21:48 | 38.78137 | -9.13359 | 364 ft | 9 kts | 201° |
| 2026-05-03 21:48 | 38.78074 | -9.13393 | 364 ft | 11 kts | 203° |
| 2026-05-03 21:49 | 38.78006 | -9.13430 | 362 ft | 11 kts | 203° |
| 2026-05-03 21:49 | 38.77931 | -9.13470 | 359 ft | 9 kts | 204° |
| 2026-05-03 21:49 | 38.77864 | -9.13507 | 364 ft | 12 kts | 203° |
| 2026-05-03 21:49 | 38.77785 | -9.13549 | 359 ft | 12 kts | 202° |
| 2026-05-03 21:50 | 38.77722 | -9.13582 | 360 ft | 6 kts | 203° |
| 2026-05-03 21:50 | 38.77674 | -9.13598 | 358 ft | 9 kts | 182° |
| 2026-05-03 21:50 | 38.77598 | -9.13583 | 357 ft | 14 kts | 167° |
| 2026-05-03 21:50 | 38.77511 | -9.13559 | 360 ft | 12 kts | 168° |
| 2026-05-03 21:51 | 38.77423 | -9.13536 | 350 ft | 14 kts | 168° |
| 2026-05-03 21:51 | 38.77319 | -9.13508 | 349 ft | 16 kts | 168° |
| 2026-05-03 21:51 | 38.77215 | -9.13480 | 349 ft | 13 kts | 168° |
| 2026-05-03 21:51 | 38.77121 | -9.13455 | 348 ft | 15 kts | 168° |
| 2026-05-03 21:52 | 38.77007 | -9.13424 | 354 ft | 17 kts | 168° |
| 2026-05-03 21:52 | 38.76894 | -9.13393 | 346 ft | 16 kts | 168° |
| 2026-05-03 21:52 | 38.76807 | -9.13369 | 345 ft | 8 kts | 168° |
| 2026-05-03 21:52 | 38.76749 | -9.13383 | 354 ft | 9 kts | 209° |
| 2026-05-03 21:53 | 38.76699 | -9.13422 | 353 ft | 8 kts | 212° |
| 2026-05-03 21:53 | 38.76659 | -9.13473 | 349 ft | 9 kts | 243° |
| 2026-05-03 21:53 | 38.76645 | -9.13540 | 353 ft | 7 kts | 257° |
| 2026-05-03 21:53 | 38.76634 | -9.13607 | 348 ft | 6 kts | 258° |
| 2026-05-03 21:54 | 38.76616 | -9.13657 | 354 ft | 6 kts | 213° |
| 2026-05-03 21:54 | 38.76590 | -9.13663 | 350 ft | 1 kts | 182° |
| 2026-05-03 21:54 | 38.76586 | -9.13663 | 355 ft | 0 kts | 180° |
| 2026-05-03 21:54 | 38.76570 | -9.13667 | 354 ft | 5 kts | 201° |
| 2026-05-03 21:55 | 38.76548 | -9.13703 | 356 ft | 6 kts | 245° |
| 2026-05-03 21:55 | 38.76537 | -9.13757 | 353 ft | 5 kts | 257° |
| 2026-05-03 21:55 | 38.76531 | -9.13787 | 352 ft | 1 kts | 252° |
| 2026-05-03 21:55 | 38.76521 | -9.13796 | 355 ft | 2 kts | 196° |
| 2026-05-03 21:56 | 38.76499 | -9.13793 | 350 ft | 3 kts | 170° |
| 2026-05-03 21:56 | 38.76487 | -9.13789 | 350 ft | 1 kts | 168° |
| 2026-05-03 21:56 | 38.76478 | -9.13787 | 353 ft | 2 kts | 168° |
| 2026-05-03 21:56 | 38.76468 | -9.13784 | 350 ft | 2 kts | 168° |
| 2026-05-03 21:57 | 38.76462 | -9.13783 | 350 ft | 1 kts | 168° |
| 2026-05-03 21:57 | 38.76457 | -9.13781 | 354 ft | 1 kts | 168° |
| 2026-05-03 21:57 | 38.76456 | -9.13781 | 354 ft | 0 kts | 168° |